CA-0684 weather

Brechin / Ronan Airfield
Brechin, Ontario, Canada

Public forecast

Using degrees Celsius for public forecast. Weather courtesy of forecast.io.

METAR (pilot weather report)

Closest report is Muskoka Airport, 24.5 nm (45.3 km) N. Retrieved 2019/05/25 21:32 UTC (0 seconds ago):

CYQA 252132Z AUTO 17005KT 2SM -RA BR OVC015 16/16 A2979 RMK SLP093 DENSITY ALT 1400FT

TAF (pilot weather forecast)

Closest forecast is Muskoka Airport, 24.5 nm (45.3 km) N. Retrieved 2019/05/25 20:00 UTC (1 hour ago):

TAF CYQA 251939Z 2520/2602 17010G20KT P6SM FEW005 SCT010 OVC050 TEMPO 2520/2523 5SM -SHRA BR BKN005 OVC010 FM252300 22005KT P6SM SCT030 TEMPO 2600/2602 2SM BR BKN005 RMK FCST BASED ON AUTO OBS. NXT FCST WILL BE ISSUED AT 261145Z